Flight Track Log - Related Links

Times and Time Zones

All times are in EDT time to prevent confusion due to time zone crossing. See the UAL4553 flight status page for this flight to view local times or setup timezone preferences in your user account.

Time Position Orientation Groundspeed Altitude Reporting Facility
EDT Latitude Longitude Course Direction KTS MPH feet Rate Location/Type
Fri 01:55:41 PM 34.9583 -82.2572 239° Southwest 239 275 4,800  Level Atlanta Center
Fri 01:56:41 PM 34.9236 -82.3111 232° Southwest 249 287 6,900 1,950 Climbing Atlanta Center
Fri 01:57:00 PM 34.6021 -82.5476 224° Southwest  Level FlightAware Approximate
Fri 01:57:41 PM 34.8661 -82.3656 218° Southwest 249 287 8,700  Level Atlanta Center
Fri 01:58:00 PM 34.5300 -82.6300 223° Southwest  Level FlightAware Approximate
Fri 01:58:41 PM 34.8042 -82.4222 217° Southwest 267 307 10,300  Level Atlanta Center
Fri 01:59:00 PM 34.4614 -82.7163 231° Southwest  Level FlightAware Approximate
Fri 01:59:41 PM 34.7342 -82.4894 218° Southwest 303 349 11,000  Level Atlanta Center
Fri 02:00:00 PM 34.4022 -82.8122 239° Southwest  Level FlightAware Approximate
Fri 02:00:41 PM 34.6600 -82.5639 220° Southwest 334 384 12,200  Level Atlanta Center
Fri 02:01:41 PM 34.5753 -82.6461 219° Southwest 355 409 13,400 1,200 Climbing Atlanta Center
Fri 02:02:41 PM 34.4947 -82.7206 217° Southwest 369 425 14,600 1,200 Climbing Atlanta Center
Fri 02:03:41 PM 34.4331 -82.8147 232° Southwest 357 411 15,800 1,400 Climbing Atlanta Center
Fri 02:04:41 PM 34.3775 -82.9111 235° Southwest 357 411 17,400 1,300 Climbing Atlanta Center
Fri 02:05:41 PM 34.3200 -83.0050 233° Southwest 357 411 18,400 1,100 Climbing Atlanta Center
Fri 02:06:41 PM 34.2644 -83.0989 234° Southwest 357 411 19,600 1,200 Climbing Atlanta Center
Fri 02:07:41 PM 34.2047 -83.1947 233° Southwest 362 417 20,800 1,200 Climbing Atlanta Center
Fri 02:08:41 PM 34.1447 -83.2933 234° Southwest 362 417 22,000 1,100 Climbing Atlanta Center
Fri 02:09:41 PM 34.0931 -83.3792 234° Southwest 362 417 23,000 1,100 Climbing Atlanta Center
Fri 02:10:41 PM 34.0331 -83.4772 234° Southwest 367 422 24,200 1,200 Climbing Atlanta Center
Fri 02:11:41 PM 33.9728 -83.5753 233° Southwest 367 422 25,400 1,150 Climbing Atlanta Center
Fri 02:12:41 PM 33.9128 -83.6708 233° Southwest 361 415 26,500 1,050 Climbing Atlanta Center
Fri 02:13:41 PM 33.8544 -83.7636 233° Southwest 361 415 27,500 750 Climbing Atlanta Center
Fri 02:14:41 PM 33.7878 -83.8714 233° Southwest 367 422 28,000 800 Climbing Atlanta Center
Fri 02:15:41 PM 33.7275 -83.9714 234° Southwest 367 422 29,100 1,050 Climbing Atlanta Center
Fri 02:16:41 PM 33.6669 -84.0661 232° Southwest 362 417 30,100 1,000 Climbing Atlanta Center
Fri 02:17:41 PM 33.6064 -84.1636 233° Southwest 362 417 31,100 1,050 Climbing Atlanta Center
Fri 02:18:41 PM 33.5456 -84.2606 233° Southwest 362 417 32,200 1,050 Climbing Atlanta Center
Fri 02:19:41 PM 33.4828 -84.3575 232° Southwest 362 417 33,200 1,000 Climbing Atlanta Center
Fri 02:20:41 PM 33.4242 -84.4569 235° Southwest 367 422 34,200 900 Climbing Atlanta Center
Fri 02:21:41 PM 33.3694 -84.5411 232° Southwest 367 422 35,000 900 Climbing Atlanta Center
Fri 02:22:41 PM 33.3106 -84.6353 233° Southwest 362 417 36,000 500 Climbing Atlanta Center
Fri 02:23:41 PM 33.2517 -84.7294 233° Southwest 362 417 36,000  Level Atlanta Center
Fri 02:24:41 PM 33.1886 -84.8306 233° Southwest 367 422 36,000  Level Atlanta Center
Fri 02:25:41 PM 33.1231 -84.9317 232° Southwest 383 441 36,000  Level Atlanta Center
Fri 02:26:41 PM 33.0492 -85.0475 233° Southwest 397 457 36,000  Level Atlanta Center
Fri 02:27:41 PM 32.9856 -85.1508 234° Southwest 397 457 36,000  Level Atlanta Center
Fri 02:28:41 PM 32.9200 -85.2514 232° Southwest 389 448 36,000  Level Atlanta Center
Fri 02:29:41 PM 32.8522 -85.3544 232° Southwest 389 448 36,000  Level Atlanta Center
Fri 02:30:41 PM 32.7842 -85.4569 232° Southwest 389 448 36,000  Level Atlanta Center
Fri 02:31:41 PM 32.7183 -85.5597 233° Southwest 389 448 36,000  Level Atlanta Center
Fri 02:32:41 PM 32.6522 -85.6622 233° Southwest 389 448 36,000  Level Atlanta Center
Fri 02:33:41 PM 32.5842 -85.7669 232° Southwest 394 453 36,000  Level Atlanta Center
Fri 02:34:41 PM 32.5178 -85.8692 232° Southwest 394 453 36,000  Level Atlanta Center
Fri 02:35:41 PM 32.4475 -85.9733 231° Southwest 403 464 36,000  Level Atlanta Center
Fri 02:36:41 PM 32.3789 -86.0803 233° Southwest 403 464 36,000  Level Atlanta Center
Fri 02:37:41 PM 32.3103 -86.1819 231° Southwest 408 470 36,000  Level Atlanta Center
Fri 02:38:41 PM 32.2417 -86.2883 233° Southwest 408 470 36,000  Level Atlanta Center
Fri 02:39:41 PM 32.1814 -86.3825 233° Southwest 408 470 36,000  Level Atlanta Center
Fri 02:40:41 PM 32.1086 -86.4883 231° Southwest 402 463 36,000  Level Atlanta Center
Fri 02:41:41 PM 32.0356 -86.5869 229° Southwest 397 457 36,000  Level Atlanta Center
Fri 02:42:41 PM 31.9667 -86.6878 231° Southwest 397 457 36,000  Level Atlanta Center
Fri 02:43:41 PM 31.8981 -86.7736 227° Southwest 409 471 36,000  Level Atlanta Center
Fri 02:45:34 PM 31.7600 -86.9583 229° Southwest 393 452 36,000  Level Houston Center
Fri 02:46:37 PM 31.6889 -87.0567 230° Southwest 394 453 36,000  Level Houston Center
Fri 02:47:39 PM 31.6172 -87.1544 229° Southwest 395 455 36,000  Level Houston Center
Fri 02:48:41 PM 31.5461 -87.2525 230° Southwest 395 455 36,000  Level Houston Center
Fri 02:49:43 PM 31.4608 -87.3703 230° Southwest 396 456 36,000  Level Houston Center
Fri 02:50:45 PM 31.3892 -87.4675 229° Southwest 395 455 36,000  Level Houston Center
Fri 02:51:47 PM 31.3169 -87.5658 229° Southwest 397 457 36,000  Level Houston Center
Fri 02:52:49 PM 31.2442 -87.6642 229° Southwest 399 459 36,000  Level Houston Center
Fri 02:53:51 PM 31.1597 -87.7778 229° Southwest 403 464 36,000  Level Houston Center
Fri 02:54:54 PM 31.0864 -87.8767 229° Southwest 404 465 36,000  Level Houston Center
Fri 02:55:56 PM 31.0119 -87.9764 229° Southwest 407 468 36,000  Level Houston Center
Fri 02:56:58 PM 30.9375 -88.0756 229° Southwest 409 471 36,000  Level Houston Center
Fri 02:58:00 PM 30.8606 -88.1761 228° Southwest 414 476 36,000  Level Houston Center
Fri 02:59:02 PM 30.7708 -88.2961 229° Southwest 410 472 36,000  Level Houston Center
Fri 03:00:04 PM 30.7086 -88.4047 236° Southwest 405 466 36,000  Level Houston Center
Fri 03:01:06 PM 30.6697 -88.5156 248° West 398 458 36,000  Level Houston Center
Fri 03:02:08 PM 30.6294 -88.6367 249° West 400 460 36,000  Level Houston Center
Fri 03:03:11 PM 30.5786 -88.7808 248° West 401 461 36,000  Level Houston Center
Fri 03:04:13 PM 30.5381 -88.9008 249° West 401 461 36,000  Level Houston Center
Fri 03:05:15 PM 30.4936 -89.0289 248° West 403 464 36,000  Level Houston Center
Fri 03:06:17 PM 30.4531 -89.1489 249° West 402 463 36,000  Level Houston Center
Fri 03:07:19 PM 30.4108 -89.2692 248° West 401 461 36,000  Level Houston Center
Fri 03:08:21 PM 30.3694 -89.3903 248° West 404 465 36,000  Level Houston Center
Fri 03:09:23 PM 30.3269 -89.5103 248° West 402 463 36,000  Level Houston Center
Fri 03:10:26 PM 30.2836 -89.6306 247° West 402 463 36,000  Level Houston Center
Fri 03:11:28 PM 30.2372 -89.7533 246° West 410 472 36,000  Level Houston Center
Fri 03:12:30 PM 30.1947 -89.8803 249° West 415 478 36,000  Level Houston Center
Fri 03:13:32 PM 30.1450 -90.0253 248° West 405 466 36,000  Level Houston Center
Fri 03:14:34 PM 30.1028 -90.1453 248° West 403 464 36,000  Level Houston Center
Fri 03:15:36 PM 30.0600 -90.2661 248° West 405 466 36,000  Level Houston Center
Fri 03:16:38 PM 30.0167 -90.3853 247° West 405 466 36,000  Level Houston Center
Fri 03:17:40 PM 29.9733 -90.5056 247° West 406 467 36,000  Level Houston Center
Fri 03:18:43 PM 29.9297 -90.6256 247° West 406 467 36,000  Level Houston Center
Fri 03:19:45 PM 29.8767 -90.7700 247° West 407 468 36,000  Level Houston Center
Fri 03:20:47 PM 29.8347 -90.8914 248° West 408 470 36,000  Level Houston Center
Fri 03:21:49 PM 29.7914 -91.0111 247° West 408 470 36,000  Level Houston Center
Fri 03:22:51 PM 29.7475 -91.1319 247° West 408 470 36,000  Level Houston Center
Fri 03:23:53 PM 29.6989 -91.2489 244° Southwest 408 470 36,000  Level Houston Center
Fri 03:24:55 PM 29.6572 -91.3700 248° West 408 470 36,000  Level Houston Center
Fri 03:25:57 PM 29.6103 -91.5144 250° West 406 467 36,000  Level Houston Center
Fri 03:27:00 PM 29.5922 -91.6403 261° West 401 461 36,000  Level Houston Center
Fri 03:28:02 PM 29.5711 -91.7661 259° West 400 460 36,000  Level Houston Center
Fri 03:29:04 PM 29.5508 -91.8931 260° West 399 459 36,000  Level Houston Center
Fri 03:30:06 PM 29.5303 -92.0161 259° West 399 459 36,000  Level Houston Center
Fri 03:31:08 PM 29.5097 -92.1417 259° West 400 460 36,000  Level Houston Center
Fri 03:32:10 PM 29.4836 -92.2931 259° West 399 459 36,000  Level Houston Center
Fri 03:33:12 PM 29.4625 -92.4158 259° West 399 459 36,000  Level Houston Center
Fri 03:34:14 PM 29.4583 -92.5428 268° West 400 460 36,000  Level Houston Center
Fri 03:35:17 PM 29.4642 -92.6714 273° West 398 458 36,000 -240 Level Houston Center
Fri 03:36:19 PM 29.4700 -92.7956 273° West 396 456 35,500 -1,710 Descending Houston Center
Fri 03:38:23 PM 29.4833 -93.0739 273° West 398 458 30,700 -2,194 Descending Houston Center
Fri 03:39:25 PM 29.4897 -93.2053 273° West 407 468 28,700 -1,935 Descending Houston Center
Fri 03:40:27 PM 29.4953 -93.3408 273° West 420 483 26,700 -1,742 Descending Houston Center
Fri 03:41:29 PM 29.5000 -93.4775 272° West 426 490 25,100 -1,500 Descending Houston Center
Fri 03:42:31 PM 29.5053 -93.6153 273° West 430 495 23,600 -1,440 Descending Houston Center
Fri 03:43:34 PM 29.5114 -93.7508 273° West 424 488 22,100 -1,824 Descending Houston Center
Fri 03:44:36 PM 29.5175 -93.9133 273° West 424 488 19,800 -2,226 Descending Houston Center
Fri 03:45:38 PM 29.5214 -94.0433 272° West 410 472 17,500 -2,385 Descending Houston Center
Fri 03:45:54 PM 29.5228 -94.0847 272° West 405 466 16,700 -2,830 Descending Houston Center
Fri 03:46:31 PM 29.5258 -94.1564 273° West 396 456 15,000 -2,204 Descending Houston Center
Fri 03:47:32 PM 29.5300 -94.2808 272° West 378 435 13,100 -1,475 Descending Houston Center
Fri 03:48:33 PM 29.5511 -94.3886 283° West 321 369 12,000 -1,082 Descending Houston Center
Fri 03:49:34 PM 29.5919 -94.4819 297° West 324 373 10,900 -1,131 Descending Houston Center
Fri 03:50:35 PM 29.6275 -94.5664 296° West 277 319 9,700 -1,436 Descending Houston Center
Fri 03:51:31 PM 29.6575 -94.6369 296° West 274 315 8,100 -1,579 Descending Houston Center
Fri 03:51:51 PM 29.6656 -94.6536 299° West 275 316 7,700 -1,574 Descending Houston Center
Fri 03:52:32 PM 29.6956 -94.7236 296° West 287 330 6,500 -1,258 Descending Houston Center
Fri 03:52:53 PM 29.6997 -94.7353 292° West 283 326 6,400 -448 Descending Houston Center
Fri 03:53:39 PM 29.7314 -94.8131 295° West 278 320 6,000 -387 Descending Houston Center
Fri 03:53:55 PM 29.7403 -94.8325 298° West 282 325 6,000  Level Houston Center
Fri 03:54:41 PM 29.7664 -94.8928 297° West 282 325 6,000  Level Houston Center
Fri 03:54:57 PM 29.7753 -94.9131 297° West 283 326 6,000  Level Houston Center
Fri 03:55:42 PM 29.8042 -94.9819 296° West 283 326 6,000  Level Houston Center
Fri 03:55:59 PM 29.8100 -94.9931 301° West 283 326 6,000  Level Houston Center
Fri 03:56:44 PM 29.8367 -95.0600 295° West 275 316 6,000  Level Houston Center
Fri 03:57:01 PM 29.8431 -95.0722 301° West 279 321 6,000  Level Houston Center
Fri 03:57:45 PM 29.8692 -95.1378 295° West 272 313 6,000  Level Houston Center
Fri 03:58:03 PM 29.8825 -95.1656 299° West 273 314 6,000  Level Houston Center
Fri 03:58:47 PM 29.8983 -95.2258 287° West 270 311 6,000 97 Level Houston Center
Fri 03:59:05 PM 29.8983 -95.2475 270° West 270 311 6,100  Climbing Houston Center
Fri 03:59:53 PM 29.8983 -95.3175 270° West 262 302 6,000 -58 Descending Houston Center
Fri 04:00:49 PM 29.8992 -95.3944 271° West 257 296 6,000  Level Houston Center
Fri 04:01:10 PM 29.9003 -95.4125 274° West 258 297 6,000 -1,180 Level Houston Center
Fri 04:01:50 PM 29.8994 -95.4667 269° West 205 236 4,800 -1,452 Descending Houston Center
Fri 04:02:12 PM 29.9008 -95.4786 278° West 212 244 4,500 -1,258 Descending Houston Center
Fri 04:02:52 PM 29.9286 -95.5114 314° West 209 241 3,500 -1,500 Descending Houston Center

Login

Don't have an account? Register now (free) for customized features, flight alerts, and more!